Time;durP1;ratioP1;P1;durP2;ratioP2;P2;SDS_P1;SDS_P2;PMS_P1;PMS_P2;Temp;Humidity;BMP_temperature;BMP_pressure;BME280_temperature;BME280_humidity;BME280_pressure;Samples;Min_cycle;Max_cycle;Signal;HPM_P1;HPM_P2
2022/03/17 00:01:57;;;;;;;11.83;9.97;;;8.80;91.80;;;8.87;61.33;95565.63;4934362;29;20496;-57
2022/03/17 00:04:24;;;;;;;15.70;11.00;;;8.80;91.80;;;8.87;60.76;95566.44;4938438;29;20468;-55
2022/03/17 00:06:52;;;;;;;15.53;10.90;;;8.80;92.10;;;8.87;61.21;95557.75;4940970;28;20479;-56
2022/03/17 00:09:19;;;;;;;21.23;13.03;;;8.80;91.80;;;8.88;61.16;95567.31;4939685;28;20481;-59
2022/03/17 00:11:47;;;;;;;15.10;11.90;;;8.80;91.80;;;8.88;60.86;95569.94;4934786;28;20468;-59
2022/03/17 00:14:16;;;;;;;18.13;13.23;;;8.90;91.80;;;8.87;61.21;95569.06;4935687;29;20576;-59
2022/03/17 00:16:43;;;;;;;22.67;13.00;;;8.80;91.80;;;8.87;60.75;95570.88;4941116;29;20456;-59
2022/03/17 00:19:11;;;;;;;19.13;12.30;;;8.80;91.80;;;8.88;61.09;95568.13;4940374;28;20969;-58
2022/03/17 00:21:38;;;;;;;18.73;12.67;;;8.80;91.80;;;8.87;61.21;95558.59;4933429;29;20965;-58
2022/03/17 00:24:07;;;;;;;25.87;13.97;;;8.80;91.80;;;8.87;60.62;95558.59;4938242;29;20480;-57
2022/03/17 00:26:35;;;;;;;23.37;14.97;;;8.80;91.80;;;8.88;61.05;95564.69;4939586;29;20795;-57
2022/03/17 00:29:03;;;;;;;25.97;13.53;;;8.80;91.80;;;8.86;61.10;95564.78;4943640;29;20555;-57
2022/03/17 00:31:32;;;;;;;22.10;15.40;;;8.80;91.80;;;8.85;61.04;95565.75;4931237;29;20552;-59
2022/03/17 00:33:59;;;;;;;22.70;14.23;;;8.80;91.80;;;8.84;60.97;95553.56;4936078;29;20473;-57
2022/03/17 00:36:26;;;;;;;18.53;14.73;;;8.80;91.80;;;8.84;60.58;95552.72;4941943;29;20467;-56
2022/03/17 00:38:53;;;;;;;22.13;15.20;;;8.80;91.80;;;8.85;61.33;95568.34;4944510;28;20507;-58
2022/03/17 00:41:21;;;;;;;22.00;15.17;;;8.80;91.80;;;8.85;60.94;95564.91;4937153;28;20516;-55
2022/03/17 00:43:48;;;;;;;21.53;13.23;;;8.80;91.90;;;8.85;61.55;95570.16;4935465;29;20583;-58
2022/03/17 00:46:15;;;;;;;19.13;13.47;;;8.80;92.00;;;8.85;61.31;95575.41;4940951;28;20473;-57
2022/03/17 00:48:44;;;;;;;22.60;14.33;;;8.80;92.20;;;8.84;61.63;95584.22;4944317;28;20476;-56
2022/03/17 00:51:11;;;;;;;13.37;10.00;;;8.80;92.20;;;8.79;61.74;95582.75;4939038;28;20457;-59
2022/03/17 00:53:39;;;;;;;16.13;11.90;;;8.80;92.50;;;8.74;62.29;95587.50;4931541;29;20485;-58
2022/03/17 00:56:06;;;;;;;16.00;11.10;;;8.70;92.60;;;8.68;61.22;95595.81;4936610;29;20551;-55
2022/03/17 00:58:33;;;;;;;14.43;10.80;;;8.70;92.20;;;8.60;63.39;95592.91;4943388;29;20569;-58
2022/03/17 01:01:01;;;;;;;15.13;9.70;;;8.60;93.20;;;8.53;62.27;95607.38;4941826;28;20461;-56
2022/03/17 01:03:28;;;;;;;21.57;12.57;;;8.50;92.90;;;8.43;62.90;95602.78;4933596;29;20500;-56
2022/03/17 01:05:59;;;;;;;21.40;13.17;;;8.40;93.50;;;8.35;62.76;95599.84;4937003;29;21041;-57
2022/03/17 01:08:26;;;;;;;18.70;11.67;;;8.30;93.30;;;8.31;63.55;95600.19;4937491;28;20559;-55
2022/03/17 01:10:54;;;;;;;18.10;10.60;;;8.30;93.70;;;8.24;64.16;95605.84;4944355;28;20539;-57
2022/03/17 01:13:21;;;;;;;22.30;11.97;;;8.20;94.20;;;8.21;63.45;95608.69;4928085;29;20481;-56
2022/03/17 01:15:48;;;;;;;12.27;10.27;;;8.20;93.80;;;8.17;63.84;95607.22;4935365;29;20470;-57
2022/03/17 01:18:15;;;;;;;11.73;10.37;;;8.20;93.90;;;8.13;63.10;95605.75;4940605;28;20476;-59
2022/03/17 01:20:44;;;;;;;12.93;9.53;;;8.10;93.60;;;8.11;63.02;95612.06;4942017;28;20460;-57
2022/03/17 01:23:13;;;;;;;19.67;10.73;;;8.10;93.60;;;8.08;64.03;95610.47;4935857;28;20504;-57
2022/03/17 01:25:40;;;;;;;10.90;8.47;;;8.10;93.90;;;8.04;63.24;95611.63;4935984;29;21053;-55
2022/03/17 01:28:07;;;;;;;8.57;7.57;;;8.00;93.50;;;8.00;62.54;95615.41;4938820;28;20477;-58
2022/03/17 01:30:35;;;;;;;6.13;4.90;;;8.00;93.20;;;7.95;62.61;95612.25;4943080;28;20464;-59
2022/03/17 01:33:03;;;;;;;3.50;3.30;;;7.90;92.70;;;7.87;61.75;95613.63;4937057;28;20489;-56
2022/03/17 01:35:30;;;;;;;4.33;3.93;;;7.90;92.30;;;7.83;61.66;95617.41;4933555;29;20834;-59
2022/03/17 01:37:57;;;;;;;3.83;3.53;;;7.90;92.30;;;7.77;62.24;95623.03;4937960;29;21012;-59
2022/03/17 01:40:26;;;;;;;2.20;2.10;;;7.80;92.20;;;7.75;61.77;95616.25;4941594;29;20946;-57
2022/03/17 01:42:53;;;;;;;1.90;1.80;;;7.80;92.10;;;7.73;61.73;95618.97;4939537;28;20508;-56
2022/03/17 01:45:20;;;;;;;2.83;2.63;;;7.70;92.00;;;7.69;61.17;95614.88;4932188;29;20455;-56
2022/03/17 01:47:48;;;;;;;2.50;2.40;;;7.70;91.80;;;7.68;61.40;95611.44;4936792;28;21227;-57
2022/03/17 01:50:16;;;;;;;2.20;2.10;;;7.70;92.00;;;7.67;60.84;95609.75;4941710;28;20557;-60
2022/03/17 01:52:44;;;;;;;2.20;2.10;;;7.70;91.80;;;7.64;61.50;95617.81;4944503;28;20827;-60
2022/03/17 01:55:12;;;;;;;2.63;2.43;;;7.60;91.70;;;7.59;61.55;95616.44;4928155;29;20457;-55
2022/03/17 01:57:41;;;;;;;2.73;2.53;;;7.60;91.70;;;7.54;61.16;95620.22;4934976;29;21017;-59
2022/03/17 02:00:11;;;;;;;3.47;3.20;;;7.60;91.80;;;7.53;61.83;95620.31;4938219;29;20507;-63
2022/03/17 02:02:39;;;;;;;3.10;2.90;;;7.50;92.20;;;7.53;61.96;95622.94;4939481;28;20508;-55
2022/03/17 02:05:07;;;;;;;2.47;2.30;;;7.50;92.20;;;7.51;61.46;95615.19;4934620;29;20469;-60
2022/03/17 02:07:34;;;;;;;2.43;2.33;;;7.50;91.90;;;7.51;61.43;95619.56;4933582;29;20784;-60
2022/03/17 02:10:01;;;;;;;5.00;3.93;;;7.50;92.10;;;7.48;61.09;95625.00;4936066;28;20836;-55
2022/03/17 02:15:15;;;;;;;3.67;3.10;;;7.50;92.00;;;7.34;61.70;95633.78;4932255;29;20448;-59
2022/03/17 02:17:43;;;;;;;3.53;3.23;;;7.40;92.10;;;7.28;62.30;95647.25;4933505;29;20485;-55
2022/03/17 02:20:12;;;;;;;2.80;2.70;;;7.30;92.10;;;7.29;62.66;95654.19;4937001;29;20603;-58
2022/03/17 02:22:43;;;;;;;3.80;3.43;;;7.30;92.50;;;7.31;62.26;95657.53;4941780;29;20845;-55
2022/03/17 02:27:57;;;;;;;11.93;3.70;;;7.30;92.20;;;7.34;61.53;95654.69;4931375;29;21056;-57
2022/03/17 02:30:24;;;;;;;4.17;3.20;;;7.40;92.30;;;7.33;61.39;95650.44;4935441;28;20468;-55
2022/03/17 02:32:52;;;;;;;5.00;3.13;;;7.30;92.10;;;7.28;61.33;95650.72;4934496;29;20531;-58
2022/03/17 02:35:22;;;;;;;3.70;3.27;;;7.30;92.00;;;7.26;61.60;95655.19;4938330;28;20453;-57
2022/03/17 02:37:49;;;;;;;2.50;2.30;;;7.30;92.40;;;7.26;61.71;95662.22;4932108;29;20469;-58
2022/03/17 02:40:18;;;;;;;2.73;2.53;;;7.20;92.20;;;7.25;61.81;95657.91;4936909;28;20461;-58
2022/03/17 02:42:46;;;;;;;3.20;3.00;;;7.30;92.10;;;7.24;61.94;95653.66;4940103;29;20628;-58
2022/03/17 02:45:13;;;;;;;3.57;3.37;;;7.20;92.40;;;7.25;61.81;95652.69;4943776;29;20982;-54
2022/03/17 02:47:42;;;;;;;2.60;2.30;;;7.30;92.30;;;7.25;61.80;95647.44;4931379;29;20508;-60
2022/03/17 02:50:11;;;;;;;2.03;1.83;;;7.30;92.00;;;7.22;61.48;95652.88;4935967;29;20826;-54
2022/03/17 02:52:38;;;;;;;2.70;2.50;;;7.20;92.00;;;7.17;62.04;95656.66;4934366;29;21099;-58
2022/03/17 02:55:08;;;;;;;2.13;2.03;;;7.20;92.40;;;7.16;62.28;95660.19;4941628;28;20453;-56
2022/03/17 02:57:37;;;;;;;2.10;1.97;;;7.20;92.40;;;7.16;62.00;95657.59;4931108;28;20505;-55
2022/03/17 03:00:07;;;;;;;2.40;2.20;;;7.20;92.40;;;7.18;61.75;95671.41;4932572;29;21049;-58
2022/03/17 03:02:35;;;;;;;2.63;2.40;;;7.20;92.40;;;7.20;62.08;95668.69;4937910;29;20573;-55
2022/03/17 03:05:03;;;;;;;3.20;3.00;;;7.20;92.40;;;7.20;61.46;95665.25;4937435;29;20507;-56
2022/03/17 03:07:30;;;;;;;3.30;3.10;;;7.20;92.30;;;7.21;62.13;95664.31;4933986;28;20553;-58
2022/03/17 03:09:57;;;;;;;3.00;2.73;;;7.20;92.40;;;7.23;61.75;95667.66;4930051;29;20468;-56
2022/03/17 03:12:25;;;;;;;3.00;2.80;;;7.20;92.60;;;7.25;62.60;95674.47;4937987;28;21014;-59
2022/03/17 03:14:53;;;;;;;3.37;3.10;;;7.20;92.50;;;7.26;61.67;95677.91;4941187;28;20453;-60
2022/03/17 03:17:22;;;;;;;4.27;3.97;;;7.20;92.50;;;7.25;63.11;95686.69;4938986;28;20461;-58
2022/03/17 03:19:49;;;;;;;3.40;3.10;;;7.30;93.30;;;7.25;62.71;95681.47;4935479;29;20907;-55
2022/03/17 03:22:17;;;;;;;4.03;3.73;;;7.30;93.20;;;7.20;63.31;95673.91;4936240;29;20858;-59
2022/03/17 03:24:45;;;;;;;7.17;6.30;;;7.20;93.40;;;7.16;63.37;95680.31;4941356;29;20903;-59
2022/03/17 03:27:12;;;;;;;9.43;7.67;;;7.20;93.60;;;7.11;63.75;95685.84;4941295;28;20540;-55
2022/03/17 03:29:39;;;;;;;11.07;8.67;;;7.10;93.40;;;7.04;63.50;95684.53;4931136;29;20457;-55
2022/03/17 03:32:13;;;;;;;5.73;5.20;;;7.10;93.60;;;7.03;63.86;95688.06;4933175;29;20527;-57
2022/03/17 03:34:41;;;;;;;4.70;4.30;;;7.10;93.70;;;7.02;62.65;95682.94;4939261;29;20439;-54
2022/03/17 03:37:25;;;;;;;3.90;3.60;;;7.00;93.30;;;7.01;63.06;95682.13;4942241;29;20475;-54
2022/03/17 03:39:53;;;;;;;7.23;4.57;;;7.00;93.30;;;6.98;62.78;95677.09;4931295;29;20481;-56
2022/03/17 03:42:21;;;;;;;9.10;4.23;;;7.00;93.30;;;6.98;63.42;95683.13;4939748;28;20516;-57
2022/03/17 03:44:48;;;;;;;5.70;4.83;;;7.00;93.60;;;6.96;63.31;95686.81;4941030;29;20499;-57
2022/03/17 03:47:17;;;;;;;15.00;6.20;;;7.00;93.40;;;6.95;63.32;95698.19;4942198;29;21056;-61
2022/03/17 03:49:44;;;;;;;6.03;4.57;;;7.00;93.70;;;6.96;63.29;95697.28;4935595;28;20842;-57
2022/03/17 03:52:14;;;;;;;10.13;3.87;;;7.00;93.50;;;6.95;62.88;95700.81;4936916;29;20459;-59
2022/03/17 03:54:41;;;;;;;7.10;4.73;;;7.00;93.60;;;6.95;63.46;95706.03;4938184;29;20460;-58
2022/03/17 03:57:09;;;;;;;4.70;4.30;;;6.90;93.50;;;6.94;63.03;95709.59;4943870;28;20579;-59
2022/03/17 03:59:36;;;;;;;5.07;4.20;;;7.00;93.30;;;6.93;63.50;95710.53;4939409;28;20520;-54
2022/03/17 04:02:05;;;;;;;6.10;5.50;;;7.00;93.70;;;6.89;62.95;95715.09;4936790;28;20559;-58
2022/03/17 04:04:34;;;;;;;6.47;5.83;;;6.90;93.30;;;6.80;63.06;95721.78;4941139;29;20492;-55
2022/03/17 04:07:03;;;;;;;8.23;7.40;;;6.90;93.10;;;6.71;62.78;95719.72;4942240;29;20500;-55
2022/03/17 04:09:33;;;;;;;7.37;6.30;;;6.80;93.00;;;6.62;62.59;95720.28;4940145;28;20556;-57
2022/03/17 04:12:00;;;;;;;9.37;7.90;;;6.70;92.80;;;6.57;63.53;95730.19;4934796;29;20452;-59
2022/03/17 04:14:27;;;;;;;10.63;8.60;;;6.70;93.30;;;6.54;63.13;95728.59;4938682;28;20519;-57
2022/03/17 04:16:55;;;;;;;12.27;9.17;;;6.60;93.10;;;6.50;63.68;95727.09;4944621;28;20453;-54
2022/03/17 04:19:23;;;;;;;12.80;10.27;;;6.60;93.50;;;6.49;63.37;95738.50;4941777;28;20470;-57
2022/03/17 04:21:51;;;;;;;13.33;9.70;;;6.60;93.40;;;6.48;62.87;95738.59;4933783;29;20946;-56
2022/03/17 04:24:19;;;;;;;10.83;8.53;;;6.60;93.40;;;6.43;63.30;95747.56;4937881;29;20496;-56
2022/03/17 04:26:46;;;;;;;11.60;9.63;;;6.50;93.40;;;6.34;63.07;95753.34;4942965;29;20456;-56
2022/03/17 04:29:13;;;;;;;15.90;10.20;;;6.50;93.10;;;6.23;63.99;95763.59;4946111;28;21020;-57
2022/03/17 04:31:41;;;;;;;10.43;9.00;;;6.40;93.40;;;6.14;63.46;95762.34;4931772;28;20532;-55
2022/03/17 04:34:09;;;;;;;12.10;9.20;;;6.30;93.30;;;6.06;63.97;95768.03;4934962;29;20492;-55
2022/03/17 04:36:36;;;;;;;13.03;9.63;;;6.20;93.80;;;6.01;63.76;95775.31;4937388;28;20461;-57
2022/03/17 04:39:06;;;;;;;11.83;8.83;;;6.10;93.70;;;5.99;63.80;95774.53;4931757;28;20498;-60
2022/03/17 04:41:33;;;;;;;14.03;9.50;;;6.10;93.70;;;5.95;64.54;95783.47;4932072;29;20449;-55
2022/03/17 04:44:00;;;;;;;11.30;9.30;;;6.10;94.00;;;5.89;63.60;95781.19;4933405;29;20492;-58
2022/03/17 04:46:28;;;;;;;13.10;9.37;;;6.00;93.50;;;5.83;65.28;95773.72;4935292;28;20491;-56
2022/03/17 04:48:55;;;;;;;10.70;9.10;;;6.00;94.40;;;5.78;65.54;95775.72;4939322;29;20758;-57
2022/03/17 04:51:22;;;;;;;10.70;8.57;;;5.90;94.90;;;5.75;65.81;95777.59;4937662;28;20464;-57
2022/03/17 04:53:51;;;;;;;13.07;9.47;;;5.90;94.90;;;5.77;64.76;95781.91;4933852;29;21024;-55
2022/03/17 04:56:21;;;;;;;11.03;9.10;;;5.90;94.60;;;5.74;64.40;95788.97;4939341;29;20879;-57
2022/03/17 04:58:49;;;;;;;14.00;9.87;;;5.90;94.10;;;5.71;65.72;95785.69;4937862;29;20504;-54
2022/03/17 05:01:16;;;;;;;14.23;10.27;;;5.80;95.00;;;5.72;65.74;95796.03;4932472;29;20516;-58
2022/03/17 05:03:44;;;;;;;15.70;10.20;;;5.80;95.00;;;5.75;65.64;95798.47;4932047;29;20576;-55
2022/03/17 05:06:13;;;;;;;12.97;9.47;;;5.80;95.10;;;5.80;66.19;95803.44;4936119;29;20487;-57
2022/03/17 05:08:40;;;;;;;18.60;9.27;;;5.90;95.30;;;5.84;65.29;95807.56;4937933;29;20469;-57
2022/03/17 05:11:09;;;;;;;12.13;9.50;;;5.90;94.90;;;5.86;64.66;95810.09;4940051;28;21052;-57
2022/03/17 05:13:38;;;;;;;13.67;8.90;;;5.90;94.50;;;5.91;nan;95813.28;4932131;28;20478;-56
2022/03/17 05:16:06;;;;;;;10.43;8.37;;;6.00;94.50;;;5.93;64.87;95814.88;4936989;29;20465;-56
2022/03/17 05:18:33;;;;;;;12.57;9.30;;;6.00;94.60;;;5.96;64.51;95816.44;4936022;29;20480;-55
2022/03/17 05:21:00;;;;;;;12.47;9.03;;;6.00;94.50;;;6.00;65.25;95818.00;4944589;29;21021;-58
2022/03/17 05:23:30;;;;;;;12.03;8.17;;;6.00;94.90;;;6.06;64.83;95828.09;4935659;29;21075;-57
2022/03/17 05:25:58;;;;;;;12.53;9.07;;;6.10;94.70;;;6.07;64.14;95819.34;4935546;29;20567;-57
2022/03/17 05:28:25;;;;;;;14.50;8.77;;;6.10;94.30;;;6.08;64.28;95820.16;4918652;29;20480;-55
2022/03/17 05:30:54;;;;;;;17.00;9.87;;;6.10;94.10;;;6.07;64.43;95823.69;4939752;29;20476;-55
2022/03/17 05:33:21;;;;;;;11.40;7.30;;;6.20;94.50;;;6.02;64.32;95825.75;4931490;28;20492;-61
2022/03/17 05:35:49;;;;;;;11.00;7.47;;;6.10;94.40;;;6.01;64.52;95832.75;4934266;28;20472;-57
2022/03/17 05:38:16;;;;;;;12.33;8.40;;;6.10;94.20;;;6.00;64.25;95828.44;4930114;29;20491;-56
2022/03/17 05:40:44;;;;;;;13.20;9.00;;;6.10;94.30;;;5.99;64.42;95842.41;4941342;29;20562;-60
2022/03/17 05:43:11;;;;;;;11.30;8.30;;;6.10;94.50;;;5.97;64.06;95849.50;4934408;28;20481;-57
2022/03/17 05:45:41;;;;;;;9.77;8.57;;;6.10;94.20;;;5.98;64.57;95855.56;4931413;29;20456;-56
2022/03/17 05:48:09;;;;;;;15.93;9.23;;;6.10;94.40;;;6.00;64.68;95856.34;4935777;29;21079;-57
2022/03/17 05:50:39;;;;;;;9.10;8.07;;;6.10;95.10;;;6.00;65.10;95862.41;4940386;28;20509;-55
2022/03/17 05:53:06;;;;;;;11.60;7.60;;;6.10;94.80;;;6.01;63.97;95865.84;4945566;29;20551;-57
2022/03/17 05:55:33;;;;;;;13.93;9.23;;;6.10;94.10;;;5.97;64.10;95870.41;4929075;29;20966;-57
2022/03/17 05:58:01;;;;;;;11.33;8.37;;;6.10;94.00;;;5.91;63.85;95874.16;4935983;29;20477;-57
2022/03/17 06:00:29;;;;;;;14.27;8.60;;;6.00;93.90;;;5.84;64.29;95880.66;4937177;29;20539;-59
2022/03/17 06:02:57;;;;;;;12.20;8.97;;;6.00;94.10;;;5.82;64.95;95882.50;4941148;28;20488;-59
2022/03/17 06:05:26;;;;;;;12.13;8.00;;;5.90;94.80;;;5.81;64.88;95880.84;4933398;28;20507;-59
2022/03/17 06:07:54;;;;;;;14.37;7.67;;;5.90;94.50;;;5.81;64.94;95879.97;4934400;29;20512;-55
2022/03/17 06:10:23;;;;;;;9.93;7.70;;;5.90;94.70;;;5.77;64.77;95883.72;4937255;29;20498;-59
2022/03/17 06:12:52;;;;;;;10.30;7.50;;;5.90;94.50;;;5.76;64.40;95885.44;4941379;28;20503;-59
2022/03/17 06:15:20;;;;;;;8.03;6.77;;;5.80;94.50;;;5.73;63.84;95878.66;4930837;29;20496;-59
2022/03/17 06:17:49;;;;;;;8.33;6.37;;;5.80;94.30;;;5.71;65.01;95884.88;4933555;29;20477;-57
2022/03/17 06:20:18;;;;;;;9.87;7.20;;;5.80;94.60;;;5.64;65.06;95884.38;4937100;29;20535;-56
2022/03/17 06:22:48;;;;;;;8.50;6.77;;;5.80;94.80;;;5.58;64.77;95889.94;4940847;28;20500;-58
2022/03/17 06:25:17;;;;;;;9.83;8.20;;;5.70;94.60;;;5.49;65.25;95880.00;4939824;28;20576;-60
2022/03/17 06:27:44;;;;;;;8.90;7.67;;;5.70;94.70;;;5.52;65.13;95895.50;4933002;29;20480;-56
2022/03/17 06:30:14;;;;;;;11.00;7.57;;;5.60;94.90;;;5.51;66.00;95893.81;4935457;29;20469;-59
2022/03/17 06:32:41;;;;;;;8.43;7.20;;;5.60;95.00;;;5.49;65.84;95896.50;4938271;29;20468;-59
2022/03/17 06:35:09;;;;;;;11.53;8.60;;;5.60;95.10;;;5.48;65.95;95904.41;4943252;28;20835;-59
2022/03/17 06:37:37;;;;;;;10.67;8.10;;;5.60;95.40;;;5.50;66.11;95903.41;4931911;29;20973;-56
2022/03/17 06:40:07;;;;;;;10.70;7.80;;;5.60;95.70;;;5.56;66.10;95910.03;4935215;29;20556;-59
2022/03/17 06:42:35;;;;;;;10.00;8.33;;;5.70;95.60;;;5.59;65.93;95911.66;4939090;28;21018;-54
2022/03/17 06:45:02;;;;;;;9.90;7.33;;;5.70;95.70;;;5.61;66.04;95920.22;4941705;28;20505;-60
2022/03/17 06:47:29;;;;;;;6.53;5.83;;;5.70;95.70;;;5.64;66.95;95920.94;4928051;29;20481;-60
2022/03/17 06:49:57;;;;;;;7.80;7.00;;;5.70;96.40;;;5.67;66.34;95925.97;4934103;29;20464;-55
2022/03/17 06:52:24;;;;;;;8.93;6.67;;;5.80;95.80;;;5.71;66.94;95919.66;4938492;29;20463;-57
2022/03/17 06:54:51;;;;;;;8.13;6.77;;;5.80;96.20;;;5.73;66.38;95928.25;4942515;28;20461;-60
2022/03/17 06:57:21;;;;;;;7.83;7.00;;;5.80;95.80;;;5.75;65.55;95930.78;4934480;28;20466;-59
2022/03/17 06:59:49;;;;;;;14.13;8.27;;;5.80;95.60;;;5.78;66.25;95932.34;4932411;29;20457;-59
2022/03/17 07:02:16;;;;;;;10.87;7.20;;;5.90;95.90;;;5.81;66.51;95942.63;4937561;28;20560;-55
2022/03/17 07:04:43;;;;;;;12.23;8.10;;;5.90;96.00;;;5.83;66.10;95939.03;4939927;28;20502;-56
2022/03/17 07:07:11;;;;;;;13.87;7.20;;;5.90;95.80;;;5.88;66.41;95938.78;4936392;29;20449;-58
2022/03/17 07:09:38;;;;;;;10.93;7.87;;;5.90;95.80;;;5.91;65.64;95938.59;4930292;29;20583;-60
2022/03/17 07:12:07;;;;;;;8.13;6.87;;;6.00;95.50;;;5.91;65.61;95946.44;4937121;29;20879;-59
2022/03/17 07:14:35;;;;;;;7.87;7.07;;;6.00;95.50;;;5.88;65.24;95946.59;4940655;29;20459;-60
2022/03/17 07:17:04;;;;;;;8.90;6.90;;;6.00;95.00;;;5.80;65.80;95943.56;4941590;28;21044;-61
2022/03/17 07:19:31;;;;;;;11.13;7.40;;;5.90;95.30;;;5.75;65.02;95957.72;4934771;29;20480;-56
2022/03/17 07:21:58;;;;;;;9.37;6.40;;;5.90;95.30;;;5.70;65.34;95951.91;4936668;29;20576;-56
2022/03/17 07:24:25;;;;;;;10.07;6.40;;;5.80;95.00;;;5.68;66.32;95952.91;4941562;28;20564;-58
2022/03/17 07:26:53;;;;;;;11.50;6.93;;;5.80;95.80;;;5.71;66.54;95955.34;4944805;28;20460;-61
2022/03/17 07:29:20;;;;;;;11.03;7.67;;;5.80;95.90;;;5.72;66.24;95960.50;4930710;29;20556;-56
2022/03/17 07:31:49;;;;;;;10.53;7.33;;;5.80;95.80;;;5.71;66.56;95952.75;4936644;29;20535;-57
2022/03/17 07:34:16;;;;;;;8.97;6.00;;;5.80;95.80;;;5.72;66.12;95965.72;4940265;29;20856;-56
2022/03/17 07:36:44;;;;;;;7.10;6.20;;;5.80;95.80;;;5.73;66.05;95961.31;4945423;28;20490;-59
2022/03/17 07:39:12;;;;;;;7.40;6.20;;;5.80;95.80;;;5.75;66.39;95960.31;4936324;29;20954;-60
2022/03/17 07:41:39;;;;;;;10.80;7.23;;;5.80;95.80;;;5.82;66.31;95970.44;4937203;29;20885;-56
2022/03/17 07:44:06;;;;;;;13.00;7.87;;;5.90;95.90;;;5.88;65.67;95970.09;4940801;28;20517;-59
2022/03/17 07:46:34;;;;;;;7.80;7.00;;;5.90;95.60;;;5.92;65.88;95966.41;4939989;28;20510;-58
2022/03/17 07:49:02;;;;;;;10.47;7.90;;;6.00;95.60;;;5.93;64.98;95968.06;4942317;29;20898;-56
2022/03/17 07:51:30;;;;;;;10.87;8.03;;;6.00;95.20;;;5.88;64.67;95970.09;4935927;29;20520;-57
2022/03/17 07:53:57;;;;;;;10.10;8.47;;;6.00;94.80;;;5.84;65.00;95963.34;4940170;29;20487;-59
2022/03/17 07:56:24;;;;;;;8.50;6.87;;;5.90;94.90;;;5.90;64.90;95968.25;4939144;29;20457;-60
2022/03/17 07:58:51;;;;;;;10.90;7.90;;;6.00;94.90;;;5.90;64.87;95978.69;4947117;28;20484;-60
2022/03/17 08:01:21;;;;;;;12.73;9.10;;;6.00;94.90;;;5.87;65.40;95974.50;4933223;29;20453;-56
2022/03/17 08:03:48;;;;;;;10.97;8.33;;;6.00;95.20;;;5.89;64.97;95970.00;4937618;29;20488;-60
2022/03/17 08:06:18;;;;;;;9.57;8.03;;;6.00;95.00;;;5.94;65.03;95969.75;4941711;28;20501;-58
2022/03/17 08:08:46;;;;;;;11.50;8.20;;;6.00;95.20;;;5.97;64.90;95972.25;4937778;29;20559;-60
2022/03/17 08:11:13;;;;;;;11.10;9.57;;;6.00;95.00;;;5.97;65.42;95968.78;4933456;29;20804;-55
2022/03/17 08:13:41;;;;;;;15.73;9.37;;;6.10;95.10;;;5.97;64.84;95967.00;4938161;29;20476;-56
2022/03/17 08:16:10;;;;;;;14.07;8.17;;;6.10;94.80;;;5.95;64.94;95974.06;4941803;28;20559;-60
2022/03/17 08:18:38;;;;;;;10.27;8.20;;;6.10;95.00;;;5.98;64.93;95973.06;4945023;28;20480;-57
2022/03/17 08:21:05;;;;;;;13.37;10.27;;;6.00;94.80;;;6.02;65.39;95972.81;4936334;28;20923;-57
2022/03/17 08:23:34;;;;;;;11.57;9.60;;;6.10;95.40;;;6.12;65.49;95973.16;4936148;29;20576;-57
2022/03/17 08:26:01;;;;;;;10.77;8.17;;;6.10;95.40;;;6.20;64.12;95970.13;4939184;29;20500;-57
2022/03/17 08:28:29;;;;;;;13.07;9.57;;;6.20;94.60;;;6.23;64.65;95978.63;4943422;29;20854;-57
2022/03/17 08:30:56;;;;;;;17.73;9.53;;;6.30;94.80;;;6.29;64.31;95977.47;4938906;29;20475;-57
2022/03/17 08:33:24;;;;;;;13.27;9.60;;;6.30;94.60;;;6.36;63.85;95983.16;4932479;29;20521;-56
2022/03/17 08:35:52;;;;;;;8.63;7.80;;;6.40;94.40;;;6.40;63.55;95979.47;4937680;29;20547;-59
2022/03/17 08:38:20;;;;;;;8.23;7.43;;;6.40;94.30;;;6.49;63.60;95978.06;4943290;28;20861;-61
2022/03/17 08:40:49;;;;;;;10.40;8.67;;;6.50;94.10;;;6.57;62.81;95989.78;4939617;29;20468;-59
2022/03/17 08:43:16;;;;;;;9.73;8.50;;;6.60;93.60;;;6.62;62.48;95987.75;4934594;29;20524;-59
2022/03/17 08:51:13;;;;;;;8.30;6.97;;;6.80;93.20;;;6.82;61.41;95976.13;4942585;29;20484;-57
2022/03/17 08:53:40;;;;;;;12.27;8.23;;;6.80;92.50;;;6.89;60.21;95979.22;4933963;29;20551;-60
2022/03/17 08:56:09;;;;;;;8.00;6.30;;;6.90;91.40;;;6.93;59.84;95985.97;4938114;29;20531;-59
2022/03/17 08:58:38;;;;;;;8.53;6.53;;;7.00;90.70;;;6.93;59.84;95993.81;4942994;28;20477;-59
2022/03/17 09:01:06;;;;;;;8.17;6.00;;;7.00;91.00;;;6.94;59.07;95992.91;4941631;28;20494;-59
2022/03/17 09:03:33;;;;;;;6.20;5.33;;;7.00;90.30;;;6.91;58.60;95995.69;4928988;29;20878;-57
2022/03/17 09:06:01;;;;;;;8.50;6.73;;;7.00;90.20;;;6.86;59.46;95997.72;4935789;29;20504;-57
2022/03/17 09:08:28;;;;;;;7.10;5.90;;;6.90;90.50;;;6.80;60.06;95998.94;4940228;29;20475;-57
2022/03/17 09:10:56;;;;;;;7.30;6.50;;;6.90;90.70;;;6.78;59.93;96013.84;4941697;28;20468;-57
2022/03/17 09:13:26;;;;;;;15.50;8.87;;;6.80;90.90;;;6.76;59.61;96010.47;4938679;28;21050;-56
2022/03/17 09:15:54;;;;;;;7.63;6.83;;;6.80;90.80;;;6.76;59.94;96010.47;4934206;29;20512;-60
2022/03/17 09:18:22;;;;;;;10.07;8.33;;;6.80;90.90;;;6.74;59.59;96011.50;4940125;28;20897;-58
2022/03/17 09:20:50;;;;;;;8.00;6.30;;;6.80;90.60;;;6.74;60.14;96022.81;4940168;29;20560;-60
2022/03/17 09:23:17;;;;;;;6.00;5.50;;;6.80;90.90;;;6.76;59.94;96013.09;4930657;29;20481;-57
2022/03/17 09:25:45;;;;;;;5.83;5.20;;;6.80;90.90;;;6.81;59.44;96021.50;4933012;29;20499;-57
2022/03/17 09:28:12;;;;;;;5.50;4.87;;;6.80;90.80;;;6.82;59.36;96020.59;4936898;29;20597;-59
2022/03/17 09:30:41;;;;;;;8.50;5.60;;;6.80;90.30;;;6.88;59.58;96035.09;4938748;29;20464;-58
2022/03/17 09:33:09;;;;;;;6.90;5.20;;;6.90;90.50;;;6.91;59.49;96031.44;4935615;28;20568;-57
2022/03/17 09:35:36;;;;;;;4.93;4.40;;;6.90;90.10;;;6.93;58.07;96040.91;4933534;29;20456;-58
2022/03/17 09:38:05;;;;;;;4.40;4.10;;;7.00;89.50;;;6.92;58.80;96036.59;4937622;28;20481;-60
2022/03/17 09:40:33;;;;;;;4.20;3.87;;;7.00;89.50;;;6.90;58.43;96038.47;4939907;29;20536;-58
2022/03/17 09:45:50;;;;;;;9.90;6.07;;;6.90;88.60;;;6.84;58.74;96046.66;4931402;29;20819;-57
2022/03/17 09:48:18;;;;;;;5.60;4.97;;;6.90;88.80;;;6.79;58.18;96043.47;4935218;29;20489;-57
2022/03/17 09:50:46;;;;;;;5.23;4.57;;;6.90;88.50;;;6.77;58.60;96038.31;4939231;29;20454;-61
2022/03/17 09:53:14;;;;;;;4.90;4.43;;;6.80;88.70;;;6.79;58.03;96046.91;4944350;28;20507;-55
2022/03/17 09:55:41;;;;;;;4.20;3.70;;;6.80;88.70;;;6.79;57.43;96046.91;4933288;28;20527;-60
2022/03/17 09:58:09;;;;;;;3.80;3.50;;;6.80;88.10;;;6.80;57.44;96052.97;4935102;29;20484;-61
2022/03/17 10:00:53;;;;;;;3.97;3.67;;;6.90;87.70;;;6.82;57.60;96044.13;4929746;28;20460;-60
2022/03/17 10:03:25;;;;;;;5.10;3.83;;;6.80;87.90;;;6.85;57.66;96050.97;4936437;29;20993;-60
2022/03/17 10:05:53;;;;;;;3.63;3.43;;;6.90;87.70;;;6.87;58.02;96049.09;4931620;28;20886;-60
2022/03/17 10:08:21;;;;;;;4.97;4.23;;;6.90;87.80;;;6.89;57.39;96055.06;4930918;29;20552;-59
2022/03/17 10:10:49;;;;;;;5.50;5.00;;;6.90;87.50;;;6.88;57.55;96053.41;4939409;28;20546;-60
2022/03/17 10:13:18;;;;;;;4.77;4.30;;;6.90;86.90;;;6.91;57.85;96052.38;4942702;29;20476;-57
2022/03/17 10:15:47;;;;;;;5.00;4.50;;;6.90;87.40;;;6.93;57.47;96058.38;4934036;28;20569;-60
2022/03/17 10:18:24;;;;;;;5.17;4.27;;;6.90;87.00;;;6.95;57.28;96059.13;4932904;29;20551;-61
2022/03/17 10:21:08;;;;;;;5.50;4.50;;;7.00;86.90;;;6.99;57.01;96060.63;4938230;29;20579;-59
2022/03/17 10:23:44;;;;;;;4.87;4.37;;;7.00;86.40;;;7.04;56.87;96052.53;4940656;28;21134;-59
2022/03/17 10:26:11;;;;;;;6.50;4.80;;;7.00;86.20;;;7.09;56.78;96055.69;4936826;29;20595;-60
2022/03/17 10:28:40;;;;;;;6.30;5.70;;;7.10;86.30;;;7.15;56.93;96050.94;4930344;29;20774;-57
2022/03/17 10:31:08;;;;;;;4.70;4.40;;;7.20;86.40;;;7.25;57.24;96059.13;4937870;29;20507;-56
2022/03/17 10:33:36;;;;;;;7.00;4.37;;;7.30;86.50;;;7.32;56.92;96054.34;4936127;29;20762;-60
2022/03/17 10:36:19;;;;;;;5.20;4.67;;;7.40;85.70;;;7.34;56.57;96055.09;4937957;28;20460;-58
2022/03/17 10:38:46;;;;;;;5.03;4.63;;;7.40;85.30;;;7.37;56.12;96049.69;4932243;29;20485;-57
2022/03/17 10:41:13;;;;;;;8.40;5.10;;;7.40;85.00;;;7.38;56.46;96050.53;4936984;29;20483;-56
2022/03/17 10:43:42;;;;;;;8.30;5.30;;;7.40;85.20;;;7.42;55.84;96054.66;4940219;29;20483;-57
2022/03/17 10:46:11;;;;;;;10.40;5.87;;;7.40;85.00;;;7.48;56.31;96052.53;4937769;28;20493;-59